Time;durP1;ratioP1;P1;durP2;ratioP2;P2;SDS_P1;SDS_P2;PMS_P1;PMS_P2;Temp;Humidity;BMP_temperature;BMP_pressure;BME280_temperature;BME280_humidity;BME280_pressure;Samples;Min_cycle;Max_cycle;Signal;HPM_P1;HPM_P2
2021/08/01 00:00:08;;;;;;;9.27;7.53;;;18.00;1.00;19.10;99933.00;;;;4997941;28;20480;-76
2021/08/01 00:02:39;;;;;;;11.87;8.90;;;18.00;1.00;19.10;99886.00;;;;5012699;28;20508;-76
2021/08/01 00:05:12;;;;;;;12.50;9.93;;;18.00;1.00;19.00;99915.00;;;;5008221;28;20446;-76
2021/08/01 00:07:41;;;;;;;14.20;9.40;;;18.00;1.00;19.00;99882.00;;;;5006897;28;20493;-76
2021/08/01 00:10:11;;;;;;;14.30;9.20;;;18.00;1.00;19.00;99911.00;;;;5001595;28;20454;-74
2021/08/01 00:12:42;;;;;;;10.90;8.20;;;18.00;1.00;19.00;99878.00;;;;4990259;28;20572;-75
2021/08/01 00:15:13;;;;;;;11.90;8.50;;;18.00;1.00;19.00;99894.00;;;;4996775;28;20813;-76
2021/08/01 00:17:41;;;;;;;12.93;8.87;;;18.00;1.00;19.00;99913.00;;;;4997434;28;21218;-75
2021/08/01 00:20:12;;;;;;;9.57;8.03;;;18.00;1.00;19.00;99883.00;;;;4995206;28;20498;-75
2021/08/01 00:22:40;;;;;;;9.83;7.67;;;17.90;1.00;18.90;99906.00;;;;4995826;28;21153;-75
2021/08/01 00:25:10;;;;;;;9.90;8.80;;;17.90;1.00;18.80;99874.00;;;;4985319;28;20523;-75
2021/08/01 00:27:39;;;;;;;14.60;8.80;;;17.80;1.00;18.80;99876.00;;;;4998303;28;20480;-75
2021/08/01 00:30:10;;;;;;;11.20;8.60;;;17.80;1.00;18.80;99876.00;;;;4996487;28;20989;-75
2021/08/01 00:32:39;;;;;;;12.67;8.37;;;17.80;1.00;18.70;99864.00;;;;4998255;28;20508;-76
2021/08/01 00:35:09;;;;;;;8.63;7.37;;;17.70;1.00;18.70;99863.00;;;;4999620;28;20462;-75
2021/08/01 00:37:39;;;;;;;10.00;7.70;;;17.80;1.00;18.70;99888.00;;;;4996304;28;20476;-76
2021/08/01 00:40:09;;;;;;;10.70;7.00;;;17.80;1.00;18.70;99877.00;;;;4995737;28;20963;-75
2021/08/01 00:42:38;;;;;;;10.73;7.50;;;17.70;1.00;18.70;99836.00;;;;5004269;28;20504;-75
2021/08/01 00:45:09;;;;;;;9.57;6.70;;;17.70;1.00;18.70;99862.00;;;;5015315;28;20462;-76
2021/08/01 00:47:37;;;;;;;10.20;6.63;;;17.70;1.00;18.70;99878.00;;;;4999796;28;20464;-75
2021/08/01 00:50:07;;;;;;;8.43;6.57;;;17.70;1.00;18.70;99849.00;;;;4991385;28;20451;-74
2021/08/01 00:52:39;;;;;;;10.03;6.80;;;17.70;1.00;18.70;99878.00;;;;4994038;28;20890;-74
2021/08/01 00:55:10;;;;;;;13.60;7.13;;;17.70;1.00;18.70;99858.00;;;;4996471;28;20454;-75
2021/08/01 00:57:40;;;;;;;10.20;6.80;;;17.70;1.00;18.70;99876.00;;;;4999791;28;20458;-75
2021/08/01 01:00:17;;;;;;;7.63;6.13;;;17.70;1.00;18.70;99874.00;;;;4991808;28;20854;-75
2021/08/01 01:02:49;;;;;;;7.40;6.10;;;17.60;1.00;18.60;99867.00;;;;4996240;28;20485;-75
2021/08/01 01:05:26;;;;;;;7.53;6.03;;;17.70;1.00;18.60;99880.00;;;;4994493;28;20838;-76
2021/08/01 01:08:05;;;;;;;8.90;6.50;;;17.60;1.00;18.60;99743.00;;;;4994503;28;20465;-74
2021/08/01 01:11:03;;;;;;;9.07;6.10;;;17.60;1.00;18.60;99884.00;;;;5017704;28;20489;-78
2021/08/01 01:13:40;;;;;;;8.60;5.90;;;17.60;1.00;18.60;99874.00;;;;5003477;28;20489;-75
2021/08/01 01:16:08;;;;;;;9.53;6.50;;;17.60;1.00;18.60;99870.00;;;;4999424;28;20463;-75
2021/08/01 01:18:48;;;;;;;14.67;5.90;;;17.60;1.00;18.60;99871.00;;;;5007829;28;21013;-76
2021/08/01 01:21:42;;;;;;;11.40;5.93;;;17.50;1.00;18.50;99857.00;;;;4997667;28;20568;-75
2021/08/01 01:24:16;;;;;;;7.70;6.03;;;17.40;1.00;18.40;99872.00;;;;4996301;28;20507;-74
2021/08/01 01:27:12;;;;;;;11.27;5.87;;;17.40;1.00;18.40;99867.00;;;;4997207;28;20467;-75
2021/08/01 01:29:47;;;;;;;7.33;5.57;;;17.40;1.00;18.40;99869.00;;;;5015563;28;20453;-74
2021/08/01 01:32:25;;;;;;;8.60;6.37;;;17.50;1.00;18.40;99873.00;;;;4999277;28;20563;-75
2021/08/01 01:34:59;;;;;;;6.73;5.57;;;17.50;1.00;18.30;99872.00;;;;5015767;28;20445;-75
2021/08/01 01:37:32;;;;;;;8.50;5.47;;;17.50;1.00;18.40;99840.00;;;;5002940;28;20544;-75
2021/08/01 01:40:07;;;;;;;6.10;5.50;;;17.50;1.00;18.40;99868.00;;;;4998528;28;20466;-75
2021/08/01 01:42:52;;;;;;;7.80;5.03;;;17.40;1.00;18.40;99881.00;;;;5004408;28;20478;-75
2021/08/01 01:45:27;;;;;;;7.20;6.50;;;17.30;1.00;18.30;99879.00;;;;5001085;28;20465;-75
2021/08/01 01:47:57;;;;;;;6.47;5.40;;;17.30;1.00;18.30;99874.00;;;;5002812;28;20458;-75
2021/08/01 01:50:25;;;;;;;7.67;5.57;;;17.20;1.00;18.30;99820.00;;;;5001148;28;20508;-75
2021/08/01 01:52:57;;;;;;;6.00;5.40;;;17.20;1.00;18.20;99856.00;;;;5001160;28;20494;-75
2021/08/01 01:55:28;;;;;;;7.57;5.80;;;17.20;1.00;18.20;99877.00;;;;4990376;28;20962;-75
2021/08/01 01:57:59;;;;;;;7.73;5.87;;;17.10;1.00;18.20;99830.00;;;;5008035;28;21672;-75
2021/08/01 02:00:28;;;;;;;8.40;5.83;;;17.10;1.00;18.10;99873.00;;;;4990017;28;20469;-75
2021/08/01 02:03:05;;;;;;;7.70;5.70;;;17.10;1.00;18.10;99868.00;;;;4997286;28;20581;-75
2021/08/01 02:06:06;;;;;;;5.77;4.80;;;17.10;1.00;18.10;99800.00;;;;5019508;28;21046;-75
2021/08/01 02:08:56;;;;;;;8.53;5.20;;;17.10;1.00;18.10;99855.00;;;;4998277;28;20473;-75
2021/08/01 02:11:49;;;;;;;7.23;5.17;;;17.10;1.00;18.10;99856.00;;;;4994146;28;20480;-75
2021/08/01 02:14:34;;;;;;;5.97;5.33;;;17.10;1.00;18.10;99863.00;;;;4998526;28;20452;-76
2021/08/01 02:17:07;;;;;;;6.20;5.60;;;17.10;1.00;18.10;99875.00;;;;4992996;28;20454;-75
2021/08/01 02:19:42;;;;;;;5.73;5.23;;;17.10;1.00;18.10;99879.00;;;;4997212;28;20487;-76
2021/08/01 02:22:14;;;;;;;7.20;5.60;;;17.10;1.00;18.20;99877.00;;;;4994914;28;20477;-76
2021/08/01 02:24:46;;;;;;;8.43;6.03;;;17.20;1.00;18.20;99886.00;;;;4985998;28;21319;-75
2021/08/01 02:27:16;;;;;;;7.20;5.30;;;17.10;1.00;18.20;99870.00;;;;4990497;28;20453;-76
2021/08/01 02:29:44;;;;;;;6.50;5.87;;;17.20;1.00;18.20;99884.00;;;;4994393;28;20545;-75
2021/08/01 02:32:14;;;;;;;8.13;5.53;;;17.10;1.00;18.20;99874.00;;;;4997866;28;20496;-75
2021/08/01 02:34:44;;;;;;;7.53;5.67;;;17.20;1.00;18.30;99887.00;;;;4997030;28;20458;-74
2021/08/01 02:37:17;;;;;;;6.73;5.37;;;17.20;1.00;18.30;99887.00;;;;4998558;28;20898;-75
2021/08/01 02:39:47;;;;;;;6.13;5.27;;;17.20;1.00;18.30;99876.00;;;;4993922;28;20484;-75
2021/08/01 02:42:16;;;;;;;6.70;6.00;;;17.20;1.00;18.30;99874.00;;;;5021465;28;20453;-74
2021/08/01 02:44:45;;;;;;;8.90;5.73;;;17.20;1.00;18.30;99882.00;;;;5020968;28;20468;-74
2021/08/01 02:47:19;;;;;;;11.53;5.90;;;17.30;1.00;18.30;99891.00;;;;5023807;28;20457;-75
2021/08/01 02:49:50;;;;;;;6.67;5.63;;;17.20;1.00;18.30;99886.00;;;;5009654;28;20457;-75
2021/08/01 02:52:25;;;;;;;5.80;5.30;;;17.20;1.00;18.30;99867.00;;;;4995934;28;20490;-75
2021/08/01 02:54:55;;;;;;;8.50;5.63;;;17.10;1.00;18.20;99850.00;;;;4995998;28;20457;-74
2021/08/01 02:57:28;;;;;;;6.27;5.67;;;17.20;1.00;18.20;99885.00;;;;4992723;28;20457;-74
2021/08/01 02:59:58;;;;;;;6.20;5.60;;;17.20;1.00;18.20;99833.00;;;;5004060;28;20458;-74
2021/08/01 03:02:26;;;;;;;7.63;5.80;;;17.20;1.00;18.20;99832.00;;;;5005021;28;20482;-74
2021/08/01 03:05:00;;;;;;;7.50;5.70;;;17.20;1.00;18.20;99846.00;;;;5008277;28;20465;-74
2021/08/01 03:07:30;;;;;;;7.17;5.73;;;17.20;1.00;18.20;99872.00;;;;5007834;28;20460;-75
2021/08/01 03:10:00;;;;;;;10.03;6.10;;;17.20;1.00;18.20;99866.00;;;;4996073;28;20490;-75
2021/08/01 03:12:31;;;;;;;6.17;5.50;;;17.20;1.00;18.20;99879.00;;;;4999294;28;20561;-75
2021/08/01 03:15:00;;;;;;;8.20;5.27;;;17.20;1.00;18.20;99892.00;;;;4998292;28;20491;-75
2021/08/01 03:17:29;;;;;;;8.70;6.10;;;17.20;1.00;18.20;99883.00;;;;4996842;28;21441;-75
2021/08/01 03:20:01;;;;;;;8.47;6.27;;;17.20;1.00;18.20;99879.00;;;;4997641;28;20461;-75
2021/08/01 03:22:31;;;;;;;5.60;5.10;;;17.20;1.00;18.20;99854.00;;;;5019329;28;20504;-75
2021/08/01 03:25:01;;;;;;;8.23;6.50;;;17.20;1.00;18.20;99877.00;;;;5019958;28;20442;-74
2021/08/01 03:27:30;;;;;;;7.50;6.37;;;17.20;1.00;18.10;99878.00;;;;5014787;28;20458;-75
2021/08/01 03:29:58;;;;;;;9.47;5.87;;;17.10;1.00;18.10;99884.00;;;;4999643;28;21324;-75
2021/08/01 03:32:27;;;;;;;7.63;5.77;;;17.10;1.00;18.00;99825.00;;;;4997102;28;20490;-75
2021/08/01 03:34:57;;;;;;;6.90;6.17;;;17.10;1.00;18.00;99882.00;;;;4997757;28;20465;-75
2021/08/01 03:37:29;;;;;;;7.30;6.33;;;17.00;1.00;18.00;99898.00;;;;4995227;28;20557;-75
2021/08/01 03:40:27;;;;;;;6.60;5.50;;;17.00;1.00;18.00;99885.00;;;;5032325;28;20484;-76
2021/08/01 03:42:57;;;;;;;8.17;6.00;;;17.00;1.00;17.90;99889.00;;;;4992592;28;20494;-75
2021/08/01 03:45:25;;;;;;;10.20;6.50;;;16.90;1.00;17.90;99870.00;;;;4999061;28;20575;-75
2021/08/01 03:47:53;;;;;;;9.47;6.40;;;16.90;1.00;17.90;99889.00;;;;4997000;28;20450;-75
2021/08/01 03:50:22;;;;;;;7.10;6.40;;;16.90;1.00;17.90;99886.00;;;;4995456;28;20457;-75
2021/08/01 03:52:50;;;;;;;6.40;5.60;;;16.90;1.00;17.90;99867.00;;;;4995253;28;20477;-75
2021/08/01 03:55:18;;;;;;;10.43;6.53;;;16.90;1.00;17.80;99857.00;;;;4998521;28;20462;-74
2021/08/01 03:57:48;;;;;;;7.90;6.27;;;16.90;1.00;17.80;99887.00;;;;4998983;28;20480;-75
2021/08/01 04:00:17;;;;;;;10.23;6.33;;;16.90;1.00;17.80;99872.00;;;;4999826;28;20471;-76
2021/08/01 04:02:45;;;;;;;6.53;6.03;;;16.90;1.00;17.80;99875.00;;;;4997293;28;20480;-75
2021/08/01 04:05:14;;;;;;;6.87;6.13;;;16.90;1.00;17.80;99836.00;;;;4996857;28;20542;-75
2021/08/01 04:07:42;;;;;;;6.53;5.97;;;16.80;1.00;17.80;99870.00;;;;4996438;28;21393;-75
2021/08/01 04:10:11;;;;;;;8.13;6.40;;;16.80;1.00;17.80;99851.00;;;;4994648;28;20514;-77
2021/08/01 04:12:39;;;;;;;8.90;6.63;;;16.90;1.00;17.80;99873.00;;;;4999571;28;20499;-74
2021/08/01 04:15:13;;;;;;;7.40;5.70;;;16.90;1.00;17.80;99865.00;;;;4996682;28;20468;-73
2021/08/01 04:17:41;;;;;;;7.37;6.17;;;16.90;1.00;17.80;99864.00;;;;5002311;28;20468;-73
2021/08/01 04:20:11;;;;;;;7.13;6.43;;;17.00;1.00;17.80;99861.00;;;;4994644;28;20456;-73
2021/08/01 04:22:40;;;;;;;7.93;5.70;;;16.90;1.00;17.80;99873.00;;;;4995987;28;20573;-73
2021/08/01 04:25:09;;;;;;;6.67;5.97;;;16.90;1.00;17.80;99872.00;;;;4998692;28;20465;-73
2021/08/01 04:27:38;;;;;;;7.10;5.37;;;17.00;1.00;17.70;99864.00;;;;4992086;28;20466;-73
2021/08/01 04:30:08;;;;;;;7.93;6.20;;;17.00;1.00;17.90;99867.00;;;;5006762;28;20884;-74
2021/08/01 04:32:38;;;;;;;10.70;5.73;;;17.10;1.00;17.90;99865.00;;;;5003721;28;20496;-74
2021/08/01 04:35:07;;;;;;;9.40;5.87;;;17.20;1.00;17.90;99858.00;;;;4999639;28;20514;-74
2021/08/01 04:37:36;;;;;;;11.20;6.67;;;17.10;1.00;18.00;99867.00;;;;4998939;28;20461;-74
2021/08/01 04:40:06;;;;;;;6.93;5.60;;;17.20;1.00;18.00;99862.00;;;;4998516;28;20504;-74
2021/08/01 04:42:34;;;;;;;6.77;5.57;;;17.30;1.00;18.00;99877.00;;;;4996753;28;20477;-74
2021/08/01 04:45:04;;;;;;;6.43;5.83;;;17.40;1.00;18.10;99874.00;;;;4987503;28;21233;-73
2021/08/01 04:47:32;;;;;;;5.60;4.97;;;17.30;1.00;18.10;99857.00;;;;4998452;28;20579;-74
2021/08/01 04:50:02;;;;;;;6.10;5.30;;;17.40;1.00;18.20;99870.00;;;;5002844;28;20565;-74
2021/08/01 04:52:30;;;;;;;6.43;5.80;;;17.40;1.00;18.30;99849.00;;;;4997462;28;20489;-73
2021/08/01 04:54:59;;;;;;;8.10;5.30;;;17.50;1.00;18.30;99884.00;;;;5004653;28;21098;-73
2021/08/01 04:57:28;;;;;;;5.80;5.27;;;17.50;1.00;18.40;99882.00;;;;4999431;28;20458;-73
2021/08/01 04:59:56;;;;;;;6.97;5.60;;;17.60;1.00;18.50;99866.00;;;;4998275;28;20473;-74
2021/08/01 05:02:24;;;;;;;7.47;5.20;;;17.70;1.00;18.50;99879.00;;;;5027382;28;20474;-75
2021/08/01 05:04:53;;;;;;;7.13;4.97;;;17.70;1.00;18.60;99863.00;;;;5009510;28;20469;-74
2021/08/01 05:07:23;;;;;;;6.70;5.67;;;17.70;1.00;18.70;99858.00;;;;4995039;28;21590;-74
2021/08/01 05:09:51;;;;;;;6.73;5.37;;;17.80;1.00;18.80;99871.00;;;;5000474;28;20859;-73
2021/08/01 05:12:19;;;;;;;8.53;5.67;;;17.90;1.00;18.80;99874.00;;;;4996138;28;20565;-74
2021/08/01 05:14:48;;;;;;;10.00;5.60;;;17.90;1.00;18.90;99855.00;;;;4999405;28;20478;-75
2021/08/01 05:17:16;;;;;;;7.93;5.60;;;18.00;1.00;19.00;99847.00;;;;5003564;28;20465;-75
2021/08/01 05:19:45;;;;;;;9.47;5.50;;;18.00;1.00;19.00;99878.00;;;;4998854;28;20460;-74
2021/08/01 05:22:14;;;;;;;8.10;5.57;;;18.10;1.00;19.10;99869.00;;;;4999772;28;21006;-75
2021/08/01 05:24:44;;;;;;;6.33;5.73;;;18.20;1.00;19.20;99862.00;;;;5000583;28;20978;-75
2021/08/01 05:27:12;;;;;;;8.90;5.93;;;18.20;1.00;19.30;99860.00;;;;5000814;28;20573;-74
2021/08/01 05:29:41;;;;;;;7.20;5.80;;;18.30;1.00;19.30;99853.00;;;;4998686;28;20461;-74
2021/08/01 05:32:09;;;;;;;5.40;4.80;;;18.40;1.00;19.40;99869.00;;;;4997915;28;20501;-75
2021/08/01 05:34:38;;;;;;;9.37;5.50;;;18.50;1.00;19.60;99869.00;;;;4997707;28;20535;-75
2021/08/01 05:37:06;;;;;;;6.90;5.23;;;18.70;1.00;19.70;99876.00;;;;5000447;28;21015;-74
2021/08/01 05:39:35;;;;;;;7.27;5.10;;;18.80;1.00;19.90;99878.00;;;;4999219;28;20837;-74
2021/08/01 05:42:05;;;;;;;6.90;5.70;;;19.00;1.00;20.00;99825.00;;;;5000575;28;20488;-75
2021/08/01 05:44:34;;;;;;;5.87;4.90;;;19.10;1.00;20.20;99882.00;;;;4999297;28;20450;-75
2021/08/01 05:47:06;;;;;;;6.60;5.83;;;19.20;1.00;20.40;99876.00;;;;5002853;28;20454;-75
2021/08/01 05:49:35;;;;;;;7.90;5.33;;;19.50;1.00;20.50;99876.00;;;;4995612;28;20516;-75
2021/08/01 05:52:04;;;;;;;6.23;5.27;;;19.60;1.00;20.60;99880.00;;;;4998446;28;20484;-74
2021/08/01 05:54:32;;;;;;;7.90;5.47;;;19.60;1.00;20.70;99873.00;;;;5001848;28;20477;-74
2021/08/01 05:57:01;;;;;;;6.20;5.60;;;19.70;1.00;20.70;99870.00;;;;4991777;28;20467;-75
2021/08/01 05:59:32;;;;;;;8.07;5.67;;;19.70;1.00;20.80;99885.00;;;;5000093;28;20887;-75
2021/08/01 06:02:00;;;;;;;5.87;5.30;;;19.80;1.00;20.80;99880.00;;;;5015773;28;20490;-75
2021/08/01 06:04:29;;;;;;;10.37;6.23;;;19.90;1.00;20.90;99887.00;;;;5026917;28;20457;-75
2021/08/01 06:06:57;;;;;;;6.70;4.80;;;20.00;1.00;21.00;99884.00;;;;5034470;28;20466;-74
2021/08/01 06:09:26;;;;;;;5.47;4.73;;;20.00;1.00;21.10;99886.00;;;;5012283;28;20450;-75
2021/08/01 06:11:54;;;;;;;6.50;5.13;;;20.10;1.00;21.20;99886.00;;;;5010335;28;20850;-74
2021/08/01 06:14:23;;;;;;;7.13;4.50;;;20.20;1.00;21.30;99860.00;;;;5003342;28;20505;-75
2021/08/01 06:16:53;;;;;;;6.50;5.23;;;20.30;1.00;21.30;99892.00;;;;4996987;28;20457;-75
2021/08/01 06:19:22;;;;;;;5.53;4.40;;;20.30;1.00;21.40;99887.00;;;;4999026;28;20939;-75
2021/08/01 06:21:50;;;;;;;6.10;4.90;;;20.40;1.00;21.50;99888.00;;;;4999705;28;20616;-75
2021/08/01 06:24:19;;;;;;;5.90;5.10;;;20.40;1.00;21.60;99885.00;;;;4992135;28;20462;-76
2021/08/01 06:26:47;;;;;;;6.77;4.90;;;20.50;1.00;21.60;99879.00;;;;4999907;28;20565;-75
2021/08/01 06:29:16;;;;;;;4.93;4.40;;;20.60;1.00;21.60;99895.00;;;;4993976;28;20458;-76
2021/08/01 06:31:45;;;;;;;6.17;5.07;;;20.60;1.00;21.60;99887.00;;;;4997540;28;20523;-76
2021/08/01 06:34:14;;;;;;;5.90;5.20;;;20.60;1.00;21.50;99895.00;;;;5000218;28;20481;-76
2021/08/01 06:36:43;;;;;;;8.30;5.43;;;20.50;1.00;21.50;99881.00;;;;4999292;28;20463;-75
2021/08/01 06:39:11;;;;;;;6.57;5.00;;;20.50;1.00;21.50;99900.00;;;;4989587;28;21447;-76
2021/08/01 06:41:39;;;;;;;7.00;5.77;;;20.50;1.00;21.30;99909.00;;;;4993363;28;20518;-75
2021/08/01 06:44:08;;;;;;;6.13;4.80;;;20.50;1.00;21.40;99902.00;;;;4994222;28;20486;-76
2021/08/01 06:46:36;;;;;;;6.10;4.73;;;20.50;1.00;21.40;99903.00;;;;5024133;28;20557;-76
2021/08/01 06:49:05;;;;;;;9.67;5.00;;;20.50;1.00;21.60;99910.00;;;;5013368;28;20473;-74
2021/08/01 06:51:38;;;;;;;7.20;5.67;;;20.60;1.00;21.60;99925.00;;;;5004133;28;20517;-75
2021/08/01 06:54:06;;;;;;;5.60;4.57;;;20.70;1.00;21.80;99916.00;;;;4995804;28;20474;-76
2021/08/01 06:56:35;;;;;;;6.37;5.13;;;20.70;1.00;21.90;99918.00;;;;4997268;28;20454;-75
2021/08/01 06:59:03;;;;;;;7.27;5.40;;;20.90;1.00;22.10;99923.00;;;;4989541;28;20466;-76
2021/08/01 07:01:31;;;;;;;5.90;5.20;;;20.90;1.00;22.20;99922.00;;;;4990337;28;20522;-76
2021/08/01 07:04:02;;;;;;;6.40;5.00;;;21.10;1.00;22.30;99915.00;;;;4996384;28;20454;-76
2021/08/01 07:06:30;;;;;;;7.70;5.43;;;21.00;1.00;22.40;99915.00;;;;5012997;28;20450;-75
2021/08/01 07:09:00;;;;;;;6.20;4.90;;;21.10;1.00;22.50;99909.00;;;;5011749;28;20463;-76
2021/08/01 07:11:28;;;;;;;5.60;5.10;;;21.10;1.00;22.60;99915.00;;;;5001464;28;20485;-74
2021/08/01 07:13:57;;;;;;;8.20;5.60;;;21.20;1.00;22.60;99903.00;;;;5000134;28;20450;-76
2021/08/01 07:16:25;;;;;;;7.23;5.80;;;21.40;1.00;22.60;99918.00;;;;5003187;28;21566;-76
2021/08/01 07:18:53;;;;;;;7.00;5.27;;;21.20;1.00;22.60;99914.00;;;;5000062;28;20462;-76
2021/08/01 07:21:22;;;;;;;8.37;6.20;;;21.20;1.00;22.50;99911.00;;;;5000514;28;20549;-76
2021/08/01 07:23:50;;;;;;;7.00;5.57;;;21.10;1.00;22.50;99861.00;;;;4997833;28;20484;-75
2021/08/01 07:26:19;;;;;;;13.57;5.37;;;21.10;1.00;22.30;99885.00;;;;5000435;28;20465;-76
2021/08/01 07:28:48;;;;;;;10.10;5.90;;;21.10;1.00;22.60;99922.00;;;;4997675;28;20450;-74
2021/08/01 07:31:16;;;;;;;5.93;5.30;;;21.20;1.00;22.70;99917.00;;;;4998330;28;20561;-76
2021/08/01 07:33:44;;;;;;;7.93;5.60;;;21.40;1.00;22.90;99906.00;;;;4998464;28;20988;-76
2021/08/01 07:36:13;;;;;;;6.83;5.80;;;21.40;1.00;22.90;99904.00;;;;5007007;28;21034;-75
2021/08/01 07:38:43;;;;;;;7.13;5.40;;;21.60;1.00;23.00;99911.00;;;;5001232;28;20460;-75
2021/08/01 07:41:11;;;;;;;6.67;5.20;;;21.60;1.00;23.00;99908.00;;;;5001037;28;20481;-75
2021/08/01 07:43:41;;;;;;;7.87;5.40;;;21.70;1.00;23.10;99908.00;;;;4995487;28;20467;-76
2021/08/01 07:46:09;;;;;;;7.40;5.83;;;21.80;1.00;23.10;99919.00;;;;4999234;28;20450;-76
2021/08/01 07:48:37;;;;;;;6.17;4.87;;;21.80;1.00;23.10;99915.00;;;;4999259;28;20461;-75
2021/08/01 07:51:06;;;;;;;7.50;5.63;;;21.90;1.00;23.20;99910.00;;;;4999057;28;20492;-75
2021/08/01 07:53:34;;;;;;;6.20;5.43;;;22.00;1.00;23.40;99915.00;;;;4991579;28;20472;-76
2021/08/01 07:56:03;;;;;;;6.80;5.10;;;22.10;1.00;23.60;99852.00;;;;5000924;28;20892;-76
2021/08/01 07:58:32;;;;;;;5.73;4.10;;;22.30;1.00;23.60;99913.00;;;;5001560;28;20847;-76
2021/08/01 08:01:01;;;;;;;6.73;4.73;;;22.30;1.00;23.80;99876.00;;;;5005529;28;20541;-75
2021/08/01 08:03:30;;;;;;;4.37;3.97;;;22.40;1.00;23.90;99901.00;;;;5003441;28;20491;-76
2021/08/01 08:06:01;;;;;;;4.93;4.23;;;22.50;1.00;23.90;99884.00;;;;5004932;28;20484;-76
2021/08/01 08:08:32;;;;;;;4.53;4.10;;;22.60;1.00;23.90;99914.00;;;;5005679;28;20466;-76
2021/08/01 08:11:00;;;;;;;5.50;3.90;;;22.50;1.00;23.90;99911.00;;;;5006041;28;20540;-74
2021/08/01 08:13:29;;;;;;;5.43;4.10;;;22.40;1.00;23.90;99912.00;;;;5004554;28;20465;-75
2021/08/01 08:15:57;;;;;;;5.10;4.20;;;22.40;1.00;23.70;99923.00;;;;5004058;28;20517;-75
2021/08/01 08:18:27;;;;;;;5.10;4.60;;;22.40;1.00;23.80;99899.00;;;;5002374;28;20547;-75
2021/08/01 08:20:55;;;;;;;4.80;4.00;;;22.40;1.00;24.10;99912.00;;;;4993105;28;20972;-75
2021/08/01 08:23:24;;;;;;;5.77;4.10;;;22.80;1.00;23.90;99889.00;;;;4996332;28;20511;-76
2021/08/01 08:25:54;;;;;;;4.10;3.70;;;22.80;1.00;23.80;99905.00;;;;4996537;28;20560;-77
2021/08/01 08:28:22;;;;;;;4.20;3.80;;;22.70;1.00;23.90;99905.00;;;;4999190;28;20520;-76
2021/08/01 08:30:51;;;;;;;4.40;3.90;;;22.70;1.00;23.90;99908.00;;;;4995543;28;20800;-76
2021/08/01 08:33:20;;;;;;;3.83;3.10;;;22.70;1.00;23.80;99882.00;;;;4998068;28;20458;-76
2021/08/01 08:35:49;;;;;;;4.63;3.13;;;22.70;1.00;23.40;99902.00;;;;4999133;28;20486;-76
2021/08/01 08:38:17;;;;;;;4.93;3.50;;;22.50;1.00;23.50;99910.00;;;;5004143;28;20458;-75
2021/08/01 08:40:46;;;;;;;6.30;4.40;;;22.60;1.00;23.50;99902.00;;;;4999856;28;20534;-76
2021/08/01 08:43:14;;;;;;;3.07;2.80;;;22.60;1.00;23.40;99915.00;;;;4986197;28;20464;-75
2021/08/01 08:45:46;;;;;;;3.80;3.27;;;22.60;1.00;23.40;99921.00;;;;4996200;28;21031;-76
2021/08/01 08:48:16;;;;;;;4.00;2.73;;;22.50;1.00;23.40;99906.00;;;;4998842;28;20502;-76
2021/08/01 08:50:50;;;;;;;3.73;2.40;;;22.60;1.00;23.70;99902.00;;;;4996950;28;20466;-75
2021/08/01 08:53:22;;;;;;;4.50;3.10;;;22.90;1.00;24.00;99907.00;;;;4997836;28;20457;-76
2021/08/01 08:55:51;;;;;;;4.93;2.90;;;23.20;1.00;24.30;99921.00;;;;4997795;28;20469;-75
2021/08/01 08:58:22;;;;;;;5.60;3.90;;;23.50;1.00;24.30;99919.00;;;;4999082;28;20530;-75
2021/08/01 09:00:50;;;;;;;4.07;2.50;;;23.40;1.00;24.00;99905.00;;;;4996286;28;20476;-75
2021/08/01 09:03:19;;;;;;;3.67;2.60;;;23.10;1.00;24.00;99916.00;;;;5004423;28;20457;-76
2021/08/01 09:05:52;;;;;;;4.40;2.93;;;23.10;1.00;24.20;99924.00;;;;5007579;28;20457;-75
2021/08/01 09:08:21;;;;;;;2.80;2.60;;;23.10;1.00;24.30;99922.00;;;;4992752;28;20657;-76
2021/08/01 09:10:49;;;;;;;4.00;2.67;;;23.30;1.00;24.10;99918.00;;;;5003313;28;20451;-76
2021/08/01 09:13:49;;;;;;;3.30;2.67;;;23.20;1.00;24.00;99912.00;;;;5015449;28;20453;-75
2021/08/01 09:16:19;;;;;;;5.27;2.70;;;23.10;1.00;24.10;99921.00;;;;4998010;28;20484;-75
2021/08/01 09:18:48;;;;;;;2.77;2.07;;;23.30;1.00;24.10;99887.00;;;;4998675;28;20893;-74
2021/08/01 09:21:31;;;;;;;2.50;2.30;;;23.30;1.00;24.00;99930.00;;;;4991571;28;20501;-74
2021/08/01 09:24:01;;;;;;;2.87;2.57;;;23.30;1.00;24.40;99917.00;;;;5014939;28;20469;-75
2021/08/01 09:26:43;;;;;;;2.57;1.90;;;23.50;1.00;24.40;99918.00;;;;5017880;28;20484;-75
2021/08/01 09:29:15;;;;;;;4.63;2.43;;;23.60;1.00;24.80;99902.00;;;;5010586;28;20552;-75
2021/08/01 09:31:44;;;;;;;4.20;2.30;;;23.90;1.00;24.90;99923.00;;;;5009735;28;20588;-75
2021/08/01 09:34:25;;;;;;;2.90;2.37;;;24.00;1.00;24.50;99913.00;;;;4999007;28;20458;-75
2021/08/01 09:37:03;;;;;;;3.90;2.17;;;23.60;1.00;24.40;99940.00;;;;5010063;28;20509;-74
2021/08/01 09:39:40;;;;;;;4.13;2.17;;;23.50;1.00;24.40;99921.00;;;;5008703;28;20485;-75
2021/08/01 09:42:11;;;;;;;2.90;2.40;;;23.60;1.00;24.40;99876.00;;;;5005416;28;20489;-75
2021/08/01 09:44:41;;;;;;;5.00;2.73;;;23.60;1.00;24.30;99920.00;;;;5010566;28;20448;-74
2021/08/01 09:47:23;;;;;;;2.73;1.93;;;23.50;1.00;24.50;99912.00;;;;5009576;28;20556;-75
2021/08/01 09:50:07;;;;;;;2.30;1.73;;;23.70;1.00;24.30;99917.00;;;;5008778;28;20450;-74
2021/08/01 09:52:37;;;;;;;2.60;2.10;;;23.60;1.00;24.30;99914.00;;;;5005797;28;20497;-75
2021/08/01 09:55:16;;;;;;;3.37;2.40;;;23.40;1.00;24.60;99863.00;;;;5009175;28;20454;-74
2021/08/01 09:57:57;;;;;;;3.27;1.87;;;23.70;1.00;24.50;99908.00;;;;5005538;28;20572;-75
2021/08/01 10:00:25;;;;;;;1.70;1.40;;;23.80;1.00;24.60;99918.00;;;;5004675;28;20473;-75
2021/08/01 10:02:57;;;;;;;2.13;1.77;;;23.80;1.00;24.50;99901.00;;;;5002966;28;20524;-75
2021/08/01 10:05:26;;;;;;;2.97;1.90;;;23.80;1.00;24.60;99904.00;;;;5000281;28;20490;-76
2021/08/01 10:07:56;;;;;;;3.77;2.07;;;24.00;1.00;24.80;99877.00;;;;4999352;28;20512;-75
2021/08/01 10:10:26;;;;;;;3.10;1.70;;;24.30;1.00;25.00;99907.00;;;;4999649;28;21001;-74
2021/08/01 10:12:58;;;;;;;3.47;1.90;;;24.50;1.00;25.10;99898.00;;;;5003936;28;20556;-73
2021/08/01 10:15:27;;;;;;;2.30;1.63;;;24.50;1.00;25.00;99907.00;;;;4999916;28;20468;-74
2021/08/01 10:17:56;;;;;;;3.63;1.90;;;24.50;1.00;24.80;99900.00;;;;4996992;28;20579;-74
2021/08/01 10:20:27;;;;;;;3.03;1.80;;;24.20;1.00;25.10;99902.00;;;;5011586;28;20464;-74
2021/08/01 10:22:57;;;;;;;2.20;1.83;;;24.30;1.00;25.30;99903.00;;;;4999034;28;20534;-74
2021/08/01 10:25:31;;;;;;;3.73;1.73;;;24.60;1.00;25.50;99899.00;;;;4995608;28;21099;-74
2021/08/01 10:28:03;;;;;;;2.37;1.60;;;24.80;1.00;25.20;99910.00;;;;5003505;28;20458;-75
2021/08/01 10:30:33;;;;;;;3.07;2.10;;;24.60;1.00;25.10;99907.00;;;;4998868;28;20470;-74
2021/08/01 10:33:07;;;;;;;3.17;1.83;;;24.50;1.00;24.90;99912.00;;;;4999958;28;20480;-74
2021/08/01 10:35:38;;;;;;;2.40;1.83;;;24.20;1.00;25.10;99908.00;;;;5000558;28;20529;-75
2021/08/01 10:38:11;;;;;;;2.33;1.80;;;24.30;1.00;25.10;99905.00;;;;5016531;28;20506;-74
2021/08/01 10:40:41;;;;;;;1.80;1.40;;;24.30;1.00;25.20;99891.00;;;;5019090;28;20483;-74
2021/08/01 10:43:13;;;;;;;3.03;1.63;;;24.30;1.00;25.50;99896.00;;;;5023437;28;20518;-75
2021/08/01 10:45:45;;;;;;;2.80;1.70;;;24.70;1.00;25.90;99892.00;;;;5026510;28;20537;-74
2021/08/01 10:48:15;;;;;;;4.80;1.90;;;25.20;1.00;26.00;99884.00;;;;5020002;28;20489;-74
2021/08/01 10:50:44;;;;;;;2.83;1.93;;;25.30;1.00;26.50;99895.00;;;;5003707;28;20454;-74
2021/08/01 10:53:29;;;;;;;3.23;1.93;;;25.70;1.00;26.50;99893.00;;;;5005427;28;20488;-73
2021/08/01 10:56:34;;;;;;;2.80;1.60;;;26.00;1.00;26.90;99897.00;;;;5005535;28;20456;-74
2021/08/01 10:59:02;;;;;;;3.07;1.87;;;26.10;1.00;26.80;99898.00;;;;5001297;28;20458;-75
2021/08/01 11:01:32;;;;;;;3.60;2.00;;;25.80;1.00;27.00;99885.00;;;;5001637;28;20482;-74
2021/08/01 11:04:32;;;;;;;2.47;1.70;;;25.90;1.00;27.00;99888.00;;;;5006225;28;20519;-74
2021/08/01 11:07:00;;;;;;;2.90;1.97;;;25.90;1.00;27.20;99889.00;;;;5007964;28;20457;-75
2021/08/01 11:09:30;;;;;;;2.97;2.17;;;25.80;1.00;27.20;99879.00;;;;5001949;28;20463;-75
2021/08/01 11:12:32;;;;;;;4.00;1.93;;;25.80;1.00;27.80;99865.00;;;;5001559;28;20573;-75
2021/08/01 11:15:02;;;;;;;2.70;2.10;;;26.30;1.00;28.10;99879.00;;;;5012141;28;20461;-75
2021/08/01 11:18:07;;;;;;;2.93;1.63;;;26.80;1.00;28.00;99869.00;;;;5016911;28;20542;-75